createdAt,value
2019-04-14T00:00:29.296Z,3.29
2019-04-14T00:03:37.209Z,4.18
2019-04-14T00:06:09.114Z,3.88
2019-04-14T00:08:39.470Z,4.02
2019-04-14T00:11:10.357Z,3.92
2019-04-14T00:13:41.240Z,3.90
2019-04-14T00:16:11.732Z,4.25
2019-04-14T00:18:42.541Z,4.32
2019-04-14T00:21:12.941Z,4.02
2019-04-14T00:23:43.458Z,4.20
2019-04-14T00:26:29.540Z,4.06
2019-04-14T00:29:19.305Z,4.02
2019-04-14T00:31:52.164Z,3.64
2019-04-14T00:34:59.610Z,4.11
2019-04-14T00:38:08.488Z,3.94
2019-04-14T00:40:41.056Z,3.83
2019-04-14T00:43:28.741Z,3.33
2019-04-14T00:46:01.369Z,3.15
2019-04-14T00:48:32.038Z,3.00
2019-04-14T00:51:02.678Z,2.87
2019-04-14T00:53:32.389Z,2.90
2019-04-14T00:56:02.073Z,2.89
2019-04-14T00:58:32.211Z,2.88
2019-04-14T01:01:02.714Z,2.89
2019-04-14T01:03:33.051Z,2.97
2019-04-14T01:06:03.259Z,2.78
2019-04-14T01:08:33.513Z,2.67
2019-04-14T01:11:03.134Z,2.67
2019-04-14T01:13:33.268Z,2.65
2019-04-14T01:16:09.835Z,2.65
2019-04-14T01:18:35.082Z,2.61
2019-04-14T01:21:04.729Z,2.77
2019-04-14T01:23:34.812Z,2.64
2019-04-14T01:26:05.045Z,2.80
2019-04-14T01:28:35.420Z,2.87
2019-04-14T01:31:05.499Z,2.96
2019-04-14T01:33:55.532Z,2.92
2019-04-14T01:36:25.563Z,3.30
2019-04-14T01:38:55.755Z,2.97
2019-04-14T01:41:26.057Z,2.87
2019-04-14T01:43:56.073Z,2.81
2019-04-14T01:46:28.353Z,2.88
2019-04-14T01:48:56.881Z,2.87
2019-04-14T01:51:30.985Z,2.83
2019-04-14T01:54:02.135Z,2.83
2019-04-14T01:56:49.272Z,2.86
2019-04-14T01:59:19.828Z,2.94
2019-04-14T02:01:56.885Z,2.87
2019-04-14T02:04:26.749Z,2.93
2019-04-14T02:06:57.385Z,2.74
2019-04-14T02:09:27.232Z,2.80
2019-04-14T02:11:57.432Z,2.80
2019-04-14T02:14:27.768Z,3.04
2019-04-14T02:17:00.553Z,3.18
2019-04-14T02:19:28.556Z,3.32
2019-04-14T02:22:00.519Z,3.29
2019-04-14T02:24:30.969Z,3.22
2019-04-14T02:27:01.263Z,2.97
2019-04-14T02:29:31.902Z,2.88
2019-04-14T02:32:43.485Z,2.85
2019-04-14T02:34:57.217Z,2.83
2019-04-14T02:40:03.853Z,2.89
2019-04-14T02:42:46.805Z,2.84
2019-04-14T02:50:08.002Z,2.63
2019-04-14T02:52:46.406Z,2.64
2019-04-14T02:57:43.419Z,2.67
2019-04-14T03:00:19.766Z,2.59
2019-04-14T03:02:44.245Z,2.53
2019-04-14T03:05:17.161Z,2.58
2019-04-14T03:08:23.627Z,2.66
2019-04-14T03:10:55.274Z,2.51
2019-04-14T03:13:21.304Z,2.65
2019-04-14T03:15:59.027Z,2.71
2019-04-14T03:21:30.279Z,2.78
2019-04-14T03:24:07.044Z,2.83
2019-04-14T03:26:34.005Z,2.86
2019-04-14T03:29:08.831Z,2.85
2019-04-14T03:37:31.478Z,3.13
2019-04-14T03:39:46.129Z,3.18
2019-04-14T03:45:22.221Z,2.51
2019-04-14T03:47:24.965Z,2.39
2019-04-14T03:50:00.948Z,2.33
2019-04-14T03:52:31.665Z,2.32
2019-04-14T03:54:52.770Z,2.36
2019-04-14T03:57:06.290Z,2.34
2019-04-14T03:59:36.761Z,2.32
2019-04-14T04:02:07.435Z,2.32
2019-04-14T04:04:38.042Z,2.31
2019-04-14T04:07:08.232Z,2.29
2019-04-14T04:12:57.601Z,2.29
2019-04-14T04:15:41.220Z,2.28
2019-04-14T04:18:15.522Z,2.28
2019-04-14T04:20:50.629Z,2.30
2019-04-14T04:23:25.016Z,2.33
2019-04-14T04:25:59.450Z,2.34
2019-04-14T04:28:36.399Z,2.34
2019-04-14T04:34:18.816Z,2.35
2019-04-14T04:36:59.578Z,2.35
2019-04-14T04:39:38.122Z,2.33
2019-04-14T04:42:09.162Z,2.31
2019-04-14T04:44:39.867Z,2.36
2019-04-14T04:47:09.954Z,2.43
2019-04-14T04:49:40.456Z,2.52
2019-04-14T04:52:30.081Z,2.58
2019-04-14T04:55:00.988Z,1.54
2019-04-14T04:57:30.703Z,2.62
2019-04-14T05:00:00.587Z,2.69
2019-04-14T05:02:30.939Z,2.66
2019-04-14T05:05:58.510Z,2.73
2019-04-14T05:08:28.417Z,2.77
2019-04-14T05:10:59.620Z,2.71
2019-04-14T05:13:31.373Z,2.76
2019-04-14T05:16:02.125Z,2.72
2019-04-14T05:18:31.709Z,2.81
2019-04-14T05:21:01.798Z,2.90
2019-04-14T05:23:32.128Z,3.00
2019-04-14T05:26:02.766Z,3.01
2019-04-14T05:28:33.153Z,3.14
2019-04-14T05:31:03.351Z,3.19
2019-04-14T05:33:53.306Z,3.23
2019-04-14T05:36:24.187Z,2.21
2019-04-14T05:38:54.084Z,3.33
2019-04-14T05:41:24.442Z,3.35
2019-04-14T05:43:58.399Z,3.34
2019-04-14T05:46:25.318Z,3.47
2019-04-14T05:48:55.818Z,3.65
2019-04-14T05:51:26.396Z,3.82
2019-04-14T05:53:56.680Z,3.80
2019-04-14T05:56:27.509Z,3.92
2019-04-14T05:58:58.001Z,3.76
2019-04-14T06:01:27.606Z,4.10
2019-04-14T06:04:16.491Z,3.77
2019-04-14T06:06:47.751Z,3.71
2019-04-14T06:09:17.324Z,3.70
2019-04-14T06:11:46.962Z,3.75
2019-04-14T06:14:35.881Z,3.56
2019-04-14T06:17:05.465Z,3.36
2019-04-14T06:19:54.408Z,3.83
2019-04-14T06:22:23.887Z,3.85
2019-04-14T06:24:53.426Z,4.11
2019-04-14T06:27:22.980Z,4.31
2019-04-14T06:30:08.944Z,4.42
2019-04-14T06:32:40.091Z,4.90
2019-04-14T06:35:27.249Z,4.76
2019-04-14T06:38:05.857Z,5.17
2019-04-14T06:40:39.676Z,5.00
2019-04-14T06:43:11.703Z,5.70
2019-04-14T06:46:00.412Z,5.54
2019-04-14T06:48:29.986Z,5.08
2019-04-14T06:51:18.886Z,6.11
2019-04-14T06:53:48.448Z,6.70
2019-04-14T06:56:18.187Z,7.26
2019-04-14T06:58:47.733Z,6.61
2019-04-14T07:01:17.225Z,8.00
2019-04-14T07:03:46.778Z,8.63
2019-04-14T07:06:16.260Z,8.29
2019-04-14T07:08:46.665Z,8.10
2019-04-14T07:11:16.224Z,7.09
2019-04-14T07:13:48.179Z,6.54
2019-04-14T07:16:16.965Z,6.28
2019-04-14T07:18:46.488Z,6.06
2019-04-14T07:21:16.029Z,5.27
2019-04-14T07:23:47.226Z,5.39
2019-04-14T07:26:16.933Z,5.39
2019-04-14T07:28:56.195Z,5.55
2019-04-14T07:31:22.268Z,5.54
2019-04-14T07:33:51.558Z,5.34
2019-04-14T07:36:23.925Z,5.77
2019-04-14T07:39:07.778Z,5.71
2019-04-14T07:41:44.694Z,5.66
2019-04-14T07:44:15.061Z,5.86
2019-04-14T07:46:46.306Z,5.70
2019-04-14T07:49:33.397Z,6.02
2019-04-14T07:52:05.610Z,5.81
2019-04-14T07:54:54.633Z,5.68
2019-04-14T07:57:28.455Z,5.53
2019-04-14T08:00:08.328Z,5.89
2019-04-14T08:02:39.467Z,5.29
2019-04-14T08:05:10.964Z,5.41
2019-04-14T08:07:40.593Z,5.96
2019-04-14T08:10:10.723Z,5.84
2019-04-14T08:12:40.231Z,6.42
2019-04-14T08:15:10.742Z,7.12
2019-04-14T08:17:40.312Z,8.35
2019-04-14T08:20:09.960Z,7.73
2019-04-14T08:22:39.525Z,6.62
2019-04-14T08:25:09.134Z,7.28
2019-04-14T08:27:38.693Z,7.33
2019-04-14T08:30:09.218Z,7.53
2019-04-14T08:32:38.707Z,7.47
2019-04-14T08:35:08.388Z,7.84
2019-04-14T08:37:37.898Z,9.67
2019-04-14T08:40:07.791Z,10.69
2019-04-14T08:42:44.719Z,10.19
2019-04-14T08:45:15.947Z,8.26
2019-04-14T08:47:47.103Z,7.17
2019-04-14T08:50:18.292Z,6.99
2019-04-14T08:52:52.389Z,6.86
2019-04-14T08:55:26.369Z,6.74
2019-04-14T08:57:57.519Z,6.75
2019-04-14T09:00:29.472Z,6.44
2019-04-14T09:03:13.629Z,6.33
2019-04-14T09:05:42.887Z,5.83
2019-04-14T09:08:14.920Z,5.77
2019-04-14T09:10:49.104Z,5.86
2019-04-14T09:13:18.606Z,6.13
2019-04-14T09:15:48.096Z,6.55
2019-04-14T09:18:17.611Z,7.26
2019-04-14T09:20:52.407Z,7.26
2019-04-14T09:23:18.417Z,7.30
2019-04-14T09:25:47.919Z,7.08
2019-04-14T09:28:17.426Z,7.20
2019-04-14T09:30:46.947Z,7.09
2019-04-14T09:33:16.428Z,7.49
2019-04-14T09:35:45.950Z,7.97
2019-04-14T09:38:15.522Z,8.28
2019-04-14T09:40:45.035Z,7.93
2019-04-14T09:43:14.553Z,7.56
2019-04-14T09:45:44.083Z,6.82
2019-04-14T09:48:13.682Z,7.17
2019-04-14T09:50:43.475Z,7.05
2019-04-14T09:53:13.055Z,7.83
2019-04-14T09:55:42.554Z,7.76
2019-04-14T09:58:12.092Z,7.85
2019-04-14T10:00:41.579Z,7.53
2019-04-14T10:03:11.803Z,7.26
2019-04-14T10:05:41.347Z,8.43
2019-04-14T10:08:10.899Z,9.07
2019-04-14T10:10:40.417Z,8.91
2019-04-14T10:13:09.982Z,9.46
2019-04-14T10:15:40.216Z,9.23
2019-04-14T10:18:09.722Z,8.52
2019-04-14T10:20:39.211Z,8.26
2019-04-14T10:23:08.714Z,8.62
2019-04-14T10:25:38.238Z,7.84
2019-04-14T10:28:08.551Z,8.54
2019-04-14T10:30:38.066Z,8.36
2019-04-14T10:33:07.552Z,8.77
2019-04-14T10:35:37.067Z,8.51
2019-04-14T10:38:06.568Z,7.85
2019-04-14T10:40:36.966Z,7.82
2019-04-14T10:43:06.618Z,7.86
2019-04-14T10:45:36.302Z,7.88
2019-04-14T10:48:05.970Z,7.86
2019-04-14T10:50:35.487Z,7.94
2019-04-14T10:53:06.284Z,7.70
2019-04-14T10:55:35.835Z,7.69
2019-04-14T10:58:05.348Z,7.40
2019-04-14T11:00:34.887Z,7.43
2019-04-14T11:03:04.673Z,7.54
2019-04-14T11:05:39.550Z,8.03
2019-04-14T11:08:09.059Z,8.25
2019-04-14T11:10:38.570Z,8.30
2019-04-14T11:13:08.064Z,8.11
2019-04-14T11:15:37.581Z,8.79
2019-04-14T11:18:07.077Z,9.11
2019-04-14T11:20:37.832Z,9.21
2019-04-14T11:23:07.312Z,8.97
2019-04-14T11:25:36.893Z,9.67
2019-04-14T11:28:06.401Z,11.21
2019-04-14T11:30:35.972Z,11.53
2019-04-14T11:33:07.104Z,10.15
2019-04-14T11:35:38.274Z,9.81
2019-04-14T11:38:10.278Z,9.80
2019-04-14T11:40:44.331Z,9.40
2019-04-14T11:43:13.830Z,9.22
2019-04-14T11:45:43.436Z,8.56
2019-04-14T11:48:12.976Z,8.16
2019-04-14T11:50:42.477Z,8.37
2019-04-14T11:53:12.045Z,8.71
2019-04-14T11:55:41.568Z,8.98
2019-04-14T11:58:11.088Z,8.83
2019-04-14T12:00:42.303Z,8.61
2019-04-14T12:03:28.997Z,8.59
2019-04-14T12:06:00.145Z,8.24
2019-04-14T12:08:47.423Z,8.03
2019-04-14T12:11:16.939Z,8.26
2019-04-14T12:13:46.429Z,8.52
2019-04-14T12:16:15.931Z,8.32
2019-04-14T12:18:45.438Z,8.24
2019-04-14T12:21:14.977Z,8.63
2019-04-14T12:23:44.519Z,8.48
2019-04-14T12:26:14.029Z,8.60
2019-04-14T12:28:43.534Z,8.38
2019-04-14T12:31:13.177Z,8.51
2019-04-14T12:33:42.691Z,8.23
2019-04-14T12:36:13.495Z,8.29
2019-04-14T12:38:42.997Z,8.36
2019-04-14T12:41:17.705Z,8.69
2019-04-14T12:44:04.649Z,8.77
2019-04-14T12:46:47.593Z,8.13
2019-04-14T12:49:21.346Z,8.00
2019-04-14T12:51:53.571Z,8.86
2019-04-14T12:54:23.565Z,8.52
2019-04-14T12:56:53.066Z,8.49
2019-04-14T12:59:23.694Z,9.18
2019-04-14T13:02:11.260Z,9.01
2019-04-14T13:04:40.914Z,9.42
2019-04-14T13:07:10.396Z,8.74
2019-04-14T13:09:40.977Z,8.92
2019-04-14T13:12:10.621Z,9.07
2019-04-14T13:14:40.136Z,8.91
2019-04-14T13:17:09.657Z,8.51
2019-04-14T13:19:39.145Z,8.47
2019-04-14T13:22:09.294Z,8.51
2019-04-14T13:24:38.807Z,8.63
2019-04-14T13:27:08.296Z,8.44
2019-04-14T13:29:37.807Z,8.16
2019-04-14T13:32:07.472Z,7.91
2019-04-14T13:34:37.509Z,7.79
2019-04-14T13:37:07.019Z,7.76
2019-04-14T13:39:36.558Z,7.83
2019-04-14T13:42:06.146Z,7.84
2019-04-14T13:44:35.642Z,7.39
2019-04-14T13:47:05.173Z,7.59
2019-04-14T13:49:34.750Z,7.73
2019-04-14T13:52:04.313Z,7.73
2019-04-14T13:54:34.245Z,7.79
2019-04-14T13:57:03.740Z,7.62
2019-04-14T13:59:34.052Z,7.52
2019-04-14T14:02:03.726Z,7.57
2019-04-14T14:04:34.450Z,7.55
2019-04-14T14:07:04.737Z,7.53
2019-04-14T14:09:34.236Z,7.66
2019-04-14T14:12:05.448Z,8.18
2019-04-14T14:14:37.123Z,7.79
2019-04-14T14:17:24.152Z,7.70
2019-04-14T14:19:55.270Z,7.67
2019-04-14T14:22:35.302Z,7.61
2019-04-14T14:25:06.954Z,7.80
2019-04-14T14:27:36.451Z,7.92
2019-04-14T14:30:09.746Z,8.14
2019-04-14T14:32:39.219Z,7.72
2019-04-14T14:35:09.545Z,7.90
2019-04-14T14:37:39.051Z,8.34
2019-04-14T14:40:08.851Z,8.38
2019-04-14T14:42:38.688Z,8.30
2019-04-14T14:45:10.064Z,8.09
2019-04-14T14:47:41.207Z,7.55
2019-04-14T14:50:21.202Z,7.55
2019-04-14T14:52:50.744Z,7.79
2019-04-14T14:55:20.245Z,7.41
2019-04-14T14:57:49.789Z,7.57
2019-04-14T15:00:34.918Z,7.39
2019-04-14T15:03:04.634Z,7.36
2019-04-14T15:05:34.131Z,7.37
2019-04-14T15:08:04.378Z,7.74
2019-04-14T15:10:33.895Z,7.55
2019-04-14T15:13:03.384Z,7.82
2019-04-14T15:15:32.905Z,7.81
2019-04-14T15:18:02.409Z,7.98
2019-04-14T15:20:32.361Z,7.71
2019-04-14T15:23:01.867Z,7.56
2019-04-14T15:25:31.366Z,7.61
2019-04-14T15:28:00.886Z,7.38
2019-04-14T15:30:30.384Z,7.37
2019-04-14T15:33:00.696Z,7.40
2019-04-14T15:35:30.230Z,7.65
2019-04-14T15:37:59.737Z,7.61
2019-04-14T15:40:29.239Z,7.56
2019-04-14T15:42:58.747Z,7.77
2019-04-14T15:45:28.933Z,7.76
2019-04-14T15:47:59.312Z,7.44
2019-04-14T15:50:28.800Z,7.43
2019-04-14T15:52:58.398Z,7.40
2019-04-14T15:55:28.090Z,7.28
2019-04-14T15:57:59.238Z,7.23
2019-04-14T16:00:46.252Z,7.32
2019-04-14T16:03:20.077Z,7.59
2019-04-14T16:05:56.863Z,7.78
2019-04-14T16:08:27.992Z,7.78
2019-04-14T16:11:04.951Z,8.16
2019-04-14T16:13:36.164Z,8.39
2019-04-14T16:16:08.552Z,7.97
2019-04-14T16:18:46.581Z,7.63
2019-04-14T16:21:17.219Z,8.31
2019-04-14T16:23:50.718Z,8.20
2019-04-14T16:26:20.663Z,8.26
2019-04-14T16:28:54.765Z,7.93
2019-04-14T16:31:37.504Z,7.72
2019-04-14T16:34:17.432Z,7.69
2019-04-14T16:36:51.331Z,7.37
2019-04-14T16:39:20.831Z,7.63
2019-04-14T16:41:50.416Z,7.58
2019-04-14T16:44:19.899Z,7.55
2019-04-14T16:46:49.473Z,7.42
2019-04-14T16:49:19.081Z,7.08
2019-04-14T16:51:52.641Z,7.31
2019-04-14T16:54:26.302Z,7.22
2019-04-14T16:57:12.237Z,6.92
2019-04-14T16:59:41.774Z,6.86
2019-04-14T17:02:11.576Z,6.84
2019-04-14T17:04:41.061Z,7.48
2019-04-14T17:07:10.606Z,7.50
2019-04-14T17:09:40.136Z,7.41
2019-04-14T17:12:09.728Z,7.55
2019-04-14T17:14:44.266Z,7.51
2019-04-14T17:17:28.093Z,7.31
2019-04-14T17:19:59.322Z,7.25
2019-04-14T17:22:39.215Z,6.84
2019-04-14T17:25:10.463Z,6.87
2019-04-14T17:27:47.613Z,7.04
2019-04-14T17:30:25.942Z,6.99
2019-04-14T17:33:01.010Z,6.91
2019-04-14T17:35:32.135Z,6.97
2019-04-14T17:38:06.364Z,6.84
2019-04-14T17:40:38.413Z,6.78
2019-04-14T17:43:21.145Z,6.73
2019-04-14T17:45:52.269Z,6.78
2019-04-14T17:48:39.233Z,6.68
2019-04-14T17:51:27.981Z,6.73
2019-04-14T17:53:59.165Z,6.68
2019-04-14T17:56:33.063Z,6.64
2019-04-14T17:59:20.281Z,6.73
2019-04-14T18:02:00.199Z,6.48
2019-04-14T18:04:31.376Z,6.44
2019-04-14T18:07:02.528Z,6.37
2019-04-14T18:09:39.443Z,6.40
2019-04-14T18:12:16.025Z,6.17
2019-04-14T18:15:01.792Z,6.08
2019-04-14T18:17:35.881Z,6.20
2019-04-14T18:20:09.523Z,6.19
2019-04-14T18:22:39.034Z,6.10
2019-04-14T18:25:09.572Z,6.44
2019-04-14T18:27:40.690Z,6.51
2019-04-14T18:30:12.184Z,6.78
2019-04-14T18:32:53.560Z,6.72
2019-04-14T18:35:40.959Z,6.46
2019-04-14T18:38:17.611Z,6.52
2019-04-14T18:40:48.763Z,6.27
2019-04-14T18:43:34.584Z,5.99
2019-04-14T18:46:05.776Z,5.84
2019-04-14T18:48:36.898Z,5.76
2019-04-14T18:51:08.052Z,5.63
2019-04-14T18:53:40.077Z,5.59
2019-04-14T18:56:11.239Z,5.57
2019-04-14T18:58:58.415Z,5.60
2019-04-14T19:01:30.808Z,5.72
2019-04-14T19:04:02.295Z,5.85
2019-04-14T19:06:31.554Z,5.74
2019-04-14T19:09:01.095Z,5.71
2019-04-14T19:11:36.326Z,5.60
2019-04-14T19:14:07.520Z,5.56
2019-04-14T19:16:41.382Z,5.48
2019-04-14T19:19:11.796Z,5.45
2019-04-14T19:21:41.309Z,5.54
2019-04-14T19:24:10.793Z,5.58
2019-04-14T19:26:40.330Z,5.46
2019-04-14T19:29:10.150Z,5.44
2019-04-14T19:31:40.931Z,5.40
2019-04-14T19:34:10.429Z,5.34
2019-04-14T19:36:39.958Z,5.26
2019-04-14T19:39:13.347Z,5.60
2019-04-14T19:41:42.918Z,5.27
2019-04-14T19:44:12.414Z,5.19
2019-04-14T19:46:42.049Z,5.18
2019-04-14T19:49:11.568Z,5.15
2019-04-14T19:51:41.079Z,5.15
2019-04-14T19:54:10.783Z,4.98
2019-04-14T19:56:40.456Z,4.91
2019-04-14T19:59:10.096Z,4.86
2019-04-14T20:01:39.607Z,4.86
2019-04-14T20:04:09.103Z,4.90
2019-04-14T20:06:38.605Z,4.94
2019-04-14T20:09:08.691Z,4.95
2019-04-14T20:11:38.308Z,5.06
2019-04-14T20:14:07.794Z,5.02
2019-04-14T20:16:41.576Z,5.08
2019-04-14T20:19:15.347Z,5.12
2019-04-14T20:21:50.711Z,5.02
2019-04-14T20:24:21.836Z,4.93
2019-04-14T20:26:52.985Z,4.94
2019-04-14T20:29:24.163Z,5.02
2019-04-14T20:31:55.302Z,4.90
2019-04-14T20:34:24.794Z,5.43
2019-04-14T20:36:54.351Z,5.57
2019-04-14T20:39:25.141Z,5.53
2019-04-14T20:41:54.732Z,5.48
2019-04-14T20:44:24.309Z,5.03
2019-04-14T20:46:53.799Z,4.84
2019-04-14T20:49:23.345Z,4.76
2019-04-14T20:51:52.848Z,5.17
2019-04-14T20:54:22.366Z,5.12
2019-04-14T20:56:52.042Z,5.26
2019-04-14T20:59:21.743Z,5.11
2019-04-14T21:02:08.747Z,5.45
2019-04-14T21:04:40.135Z,5.03
2019-04-14T21:07:12.081Z,5.32
2019-04-14T21:09:49.014Z,5.58
2019-04-14T21:12:23.283Z,5.14
2019-04-14T21:15:04.207Z,5.08
2019-04-14T21:17:37.810Z,4.93
2019-04-14T21:20:09.037Z,4.87
2019-04-14T21:22:42.931Z,4.81
2019-04-14T21:25:12.187Z,4.80
2019-04-14T21:28:01.245Z,4.79
2019-04-14T21:30:32.398Z,4.89
2019-04-14T21:33:01.673Z,5.28
2019-04-14T21:35:42.911Z,5.24
2019-04-14T21:38:16.944Z,5.07
2019-04-14T21:40:48.130Z,4.91
2019-04-14T21:43:17.843Z,4.86
2019-04-14T21:45:47.334Z,4.81
2019-04-14T21:48:16.870Z,4.67
2019-04-14T21:50:46.380Z,4.72
2019-04-14T21:53:15.888Z,5.00
2019-04-14T21:55:45.382Z,5.06
2019-04-14T21:58:25.496Z,5.02
2019-04-14T22:01:19.006Z,4.80
2019-04-14T22:03:56.085Z,4.71
2019-04-14T22:06:36.049Z,4.68
2019-04-14T22:09:09.174Z,4.59
2019-04-14T22:11:39.607Z,4.46
2019-04-14T22:14:09.126Z,4.47
2019-04-14T22:16:39.431Z,4.43
2019-04-14T22:19:09.019Z,4.40
2019-04-14T22:21:38.505Z,4.41
2019-04-14T22:24:08.024Z,4.43
2019-04-14T22:26:37.587Z,4.64
2019-04-14T22:29:07.654Z,4.88
2019-04-14T22:31:37.139Z,5.05
2019-04-14T22:34:06.854Z,4.80
2019-04-14T22:36:36.341Z,4.73
2019-04-14T22:39:08.539Z,4.72
2019-04-14T22:41:40.045Z,4.73
2019-04-14T22:44:09.310Z,4.82
2019-04-14T22:46:38.802Z,4.84
2019-04-14T22:49:08.346Z,4.83
2019-04-14T22:51:37.885Z,4.84
2019-04-14T22:54:07.432Z,4.89
2019-04-14T22:56:39.508Z,4.84
2019-04-14T22:59:08.211Z,4.87
2019-04-14T23:01:39.333Z,4.87
2019-04-14T23:04:18.892Z,4.89
2019-04-14T23:06:58.971Z,4.91
2019-04-14T23:09:44.823Z,4.94
2019-04-14T23:12:18.927Z,4.93
2019-04-14T23:15:06.047Z,4.95
2019-04-14T23:17:37.258Z,4.96
2019-04-14T23:20:17.743Z,4.95
2019-04-14T23:22:47.030Z,5.02
2019-04-14T23:25:16.716Z,5.00
2019-04-14T23:27:46.202Z,4.98
2019-04-14T23:30:15.974Z,5.03
2019-04-14T23:32:45.485Z,5.06
2019-04-14T23:35:15.004Z,5.02
2019-04-14T23:37:44.491Z,5.00
2019-04-14T23:40:14.319Z,4.95
2019-04-14T23:42:43.820Z,4.96
2019-04-14T23:45:13.460Z,4.96
2019-04-14T23:47:42.957Z,4.91
2019-04-14T23:50:12.987Z,4.83
2019-04-14T23:52:42.938Z,4.71
2019-04-14T23:55:12.502Z,4.67
2019-04-14T23:57:42.016Z,4.70
